sensor_id;sensor_type;location;lat;lon;timestamp;P1;durP1;ratioP1;P2;durP2;ratioP2
19812;SDS011;10066;48.108;11.448;2023-05-07T00:01:39;12.90;;;9.23;;
19812;SDS011;10066;48.108;11.448;2023-05-07T00:04:06;11.07;;;8.97;;
19812;SDS011;10066;48.108;11.448;2023-05-07T00:06:33;11.17;;;8.93;;
19812;SDS011;10066;48.108;11.448;2023-05-07T00:09:00;9.63;;;8.27;;
19812;SDS011;10066;48.108;11.448;2023-05-07T00:11:28;9.17;;;8.10;;
19812;SDS011;10066;48.108;11.448;2023-05-07T00:13:55;11.70;;;8.27;;
19812;SDS011;10066;48.108;11.448;2023-05-07T00:16:24;11.63;;;8.50;;
19812;SDS011;10066;48.108;11.448;2023-05-07T00:18:51;10.80;;;8.97;;
19812;SDS011;10066;48.108;11.448;2023-05-07T00:21:18;16.30;;;9.37;;
19812;SDS011;10066;48.108;11.448;2023-05-07T00:23:46;13.40;;;9.07;;
19812;SDS011;10066;48.108;11.448;2023-05-07T00:26:13;10.17;;;8.83;;
19812;SDS011;10066;48.108;11.448;2023-05-07T00:28:40;14.57;;;9.60;;
19812;SDS011;10066;48.108;11.448;2023-05-07T00:31:07;12.70;;;8.90;;
19812;SDS011;10066;48.108;11.448;2023-05-07T00:33:35;11.43;;;9.03;;
19812;SDS011;10066;48.108;11.448;2023-05-07T00:36:03;11.80;;;9.10;;
19812;SDS011;10066;48.108;11.448;2023-05-07T00:38:30;10.70;;;8.87;;
19812;SDS011;10066;48.108;11.448;2023-05-07T00:40:57;12.27;;;8.40;;
19812;SDS011;10066;48.108;11.448;2023-05-07T00:43:24;10.67;;;8.37;;
19812;SDS011;10066;48.108;11.448;2023-05-07T00:45:52;9.63;;;8.63;;
19812;SDS011;10066;48.108;11.448;2023-05-07T00:48:19;10.13;;;8.40;;
19812;SDS011;10066;48.108;11.448;2023-05-07T00:50:48;13.43;;;8.10;;
19812;SDS011;10066;48.108;11.448;2023-05-07T00:53:15;10.43;;;8.23;;
19812;SDS011;10066;48.108;11.448;2023-05-07T00:55:42;10.17;;;7.90;;
19812;SDS011;10066;48.108;11.448;2023-05-07T00:58:09;11.47;;;7.83;;
19812;SDS011;10066;48.108;11.448;2023-05-07T01:00:36;8.87;;;7.97;;
19812;SDS011;10066;48.108;11.448;2023-05-07T01:03:03;9.50;;;7.93;;
19812;SDS011;10066;48.108;11.448;2023-05-07T01:05:31;8.90;;;7.60;;
19812;SDS011;10066;48.108;11.448;2023-05-07T01:08:00;10.43;;;7.83;;
19812;SDS011;10066;48.108;11.448;2023-05-07T01:10:28;9.60;;;7.80;;
19812;SDS011;10066;48.108;11.448;2023-05-07T01:12:56;11.30;;;7.83;;
19812;SDS011;10066;48.108;11.448;2023-05-07T01:15:24;9.00;;;7.83;;
19812;SDS011;10066;48.108;11.448;2023-05-07T01:17:51;8.77;;;7.77;;
19812;SDS011;10066;48.108;11.448;2023-05-07T01:20:19;11.90;;;7.87;;
19812;SDS011;10066;48.108;11.448;2023-05-07T01:22:47;8.93;;;8.00;;
19812;SDS011;10066;48.108;11.448;2023-05-07T01:25:15;10.57;;;7.60;;
19812;SDS011;10066;48.108;11.448;2023-05-07T01:27:42;10.57;;;7.37;;
19812;SDS011;10066;48.108;11.448;2023-05-07T01:30:09;8.27;;;7.47;;
19812;SDS011;10066;48.108;11.448;2023-05-07T01:32:38;9.77;;;7.63;;
19812;SDS011;10066;48.108;11.448;2023-05-07T01:35:09;9.70;;;7.90;;
19812;SDS011;10066;48.108;11.448;2023-05-07T01:37:38;10.37;;;7.77;;
19812;SDS011;10066;48.108;11.448;2023-05-07T01:40:07;8.20;;;7.30;;
19812;SDS011;10066;48.108;11.448;2023-05-07T01:42:36;9.03;;;7.13;;
19812;SDS011;10066;48.108;11.448;2023-05-07T01:45:03;9.17;;;7.20;;
19812;SDS011;10066;48.108;11.448;2023-05-07T01:47:31;10.20;;;7.67;;
19812;SDS011;10066;48.108;11.448;2023-05-07T01:49:59;13.10;;;8.03;;
19812;SDS011;10066;48.108;11.448;2023-05-07T01:52:27;8.07;;;7.17;;
19812;SDS011;10066;48.108;11.448;2023-05-07T01:54:55;9.90;;;7.33;;
19812;SDS011;10066;48.108;11.448;2023-05-07T01:57:23;10.60;;;7.97;;
19812;SDS011;10066;48.108;11.448;2023-05-07T01:59:50;8.73;;;7.80;;
19812;SDS011;10066;48.108;11.448;2023-05-07T02:02:17;8.87;;;7.57;;
19812;SDS011;10066;48.108;11.448;2023-05-07T02:04:44;10.37;;;7.47;;
19812;SDS011;10066;48.108;11.448;2023-05-07T02:07:11;8.03;;;7.23;;
19812;SDS011;10066;48.108;11.448;2023-05-07T02:09:38;8.90;;;7.47;;
19812;SDS011;10066;48.108;11.448;2023-05-07T02:12:05;7.93;;;7.13;;
19812;SDS011;10066;48.108;11.448;2023-05-07T02:14:33;9.40;;;7.50;;
19812;SDS011;10066;48.108;11.448;2023-05-07T02:17:00;9.87;;;7.00;;
19812;SDS011;10066;48.108;11.448;2023-05-07T02:19:26;8.33;;;7.07;;
19812;SDS011;10066;48.108;11.448;2023-05-07T02:21:53;8.07;;;7.27;;
19812;SDS011;10066;48.108;11.448;2023-05-07T02:24:20;7.87;;;7.03;;
19812;SDS011;10066;48.108;11.448;2023-05-07T02:26:47;10.17;;;7.33;;
19812;SDS011;10066;48.108;11.448;2023-05-07T02:29:15;8.90;;;7.37;;
19812;SDS011;10066;48.108;11.448;2023-05-07T02:31:44;8.07;;;7.00;;
19812;SDS011;10066;48.108;11.448;2023-05-07T02:34:10;9.40;;;7.00;;
19812;SDS011;10066;48.108;11.448;2023-05-07T02:36:37;8.37;;;7.17;;
19812;SDS011;10066;48.108;11.448;2023-05-07T02:39:05;8.03;;;6.60;;
19812;SDS011;10066;48.108;11.448;2023-05-07T02:41:32;7.80;;;7.00;;
19812;SDS011;10066;48.108;11.448;2023-05-07T02:43:58;8.43;;;6.87;;
19812;SDS011;10066;48.108;11.448;2023-05-07T02:46:26;7.47;;;6.60;;
19812;SDS011;10066;48.108;11.448;2023-05-07T02:48:54;7.33;;;6.63;;
19812;SDS011;10066;48.108;11.448;2023-05-07T02:51:21;8.10;;;6.83;;
19812;SDS011;10066;48.108;11.448;2023-05-07T02:53:49;8.27;;;6.77;;
19812;SDS011;10066;48.108;11.448;2023-05-07T02:56:16;7.77;;;6.70;;
19812;SDS011;10066;48.108;11.448;2023-05-07T02:58:43;7.50;;;6.60;;
19812;SDS011;10066;48.108;11.448;2023-05-07T03:01:10;8.10;;;6.73;;
19812;SDS011;10066;48.108;11.448;2023-05-07T03:03:38;9.77;;;6.97;;
19812;SDS011;10066;48.108;11.448;2023-05-07T03:06:07;9.47;;;7.53;;
19812;SDS011;10066;48.108;11.448;2023-05-07T03:08:34;12.60;;;7.10;;
19812;SDS011;10066;48.108;11.448;2023-05-07T03:11:01;8.03;;;7.00;;
19812;SDS011;10066;48.108;11.448;2023-05-07T03:13:30;10.57;;;7.67;;
19812;SDS011;10066;48.108;11.448;2023-05-07T03:15:57;11.80;;;7.87;;
19812;SDS011;10066;48.108;11.448;2023-05-07T03:18:23;13.17;;;8.37;;
19812;SDS011;10066;48.108;11.448;2023-05-07T03:20:51;8.63;;;7.37;;
19812;SDS011;10066;48.108;11.448;2023-05-07T03:23:19;10.93;;;7.73;;
19812;SDS011;10066;48.108;11.448;2023-05-07T03:25:46;12.73;;;7.73;;
19812;SDS011;10066;48.108;11.448;2023-05-07T03:28:13;11.80;;;7.77;;
19812;SDS011;10066;48.108;11.448;2023-05-07T03:30:40;11.50;;;7.80;;
19812;SDS011;10066;48.108;11.448;2023-05-07T03:33:07;8.60;;;7.70;;
19812;SDS011;10066;48.108;11.448;2023-05-07T03:35:34;10.63;;;7.60;;
19812;SDS011;10066;48.108;11.448;2023-05-07T03:38:01;11.77;;;7.90;;
19812;SDS011;10066;48.108;11.448;2023-05-07T03:40:29;9.33;;;7.50;;
19812;SDS011;10066;48.108;11.448;2023-05-07T03:42:56;11.10;;;7.60;;
19812;SDS011;10066;48.108;11.448;2023-05-07T03:45:25;11.57;;;8.37;;
19812;SDS011;10066;48.108;11.448;2023-05-07T03:47:52;8.80;;;7.33;;
19812;SDS011;10066;48.108;11.448;2023-05-07T03:50:19;12.63;;;9.10;;
19812;SDS011;10066;48.108;11.448;2023-05-07T03:52:46;9.47;;;8.03;;
19812;SDS011;10066;48.108;11.448;2023-05-07T03:55:13;10.70;;;7.70;;
19812;SDS011;10066;48.108;11.448;2023-05-07T03:57:42;12.40;;;8.03;;
19812;SDS011;10066;48.108;11.448;2023-05-07T04:00:10;10.60;;;7.70;;
19812;SDS011;10066;48.108;11.448;2023-05-07T04:02:39;10.20;;;7.77;;
19812;SDS011;10066;48.108;11.448;2023-05-07T04:05:06;12.20;;;7.60;;
19812;SDS011;10066;48.108;11.448;2023-05-07T04:07:33;10.57;;;7.80;;
19812;SDS011;10066;48.108;11.448;2023-05-07T04:10:00;11.07;;;8.10;;
19812;SDS011;10066;48.108;11.448;2023-05-07T04:12:27;11.07;;;8.23;;
19812;SDS011;10066;48.108;11.448;2023-05-07T04:14:55;11.17;;;8.40;;
19812;SDS011;10066;48.108;11.448;2023-05-07T04:17:22;10.53;;;8.33;;
19812;SDS011;10066;48.108;11.448;2023-05-07T04:19:49;9.07;;;8.03;;
19812;SDS011;10066;48.108;11.448;2023-05-07T04:22:16;8.87;;;7.37;;
19812;SDS011;10066;48.108;11.448;2023-05-07T04:24:43;11.10;;;8.17;;
19812;SDS011;10066;48.108;11.448;2023-05-07T04:27:09;9.20;;;7.70;;
19812;SDS011;10066;48.108;11.448;2023-05-07T04:29:37;10.47;;;7.47;;
19812;SDS011;10066;48.108;11.448;2023-05-07T04:32:08;9.63;;;7.47;;
19812;SDS011;10066;48.108;11.448;2023-05-07T04:34:35;11.73;;;7.90;;
19812;SDS011;10066;48.108;11.448;2023-05-07T04:37:02;8.73;;;7.73;;
19812;SDS011;10066;48.108;11.448;2023-05-07T04:39:29;9.63;;;8.73;;
19812;SDS011;10066;48.108;11.448;2023-05-07T04:41:56;10.87;;;8.73;;
19812;SDS011;10066;48.108;11.448;2023-05-07T04:44:22;12.13;;;8.70;;
19812;SDS011;10066;48.108;11.448;2023-05-07T04:46:50;12.90;;;9.27;;
19812;SDS011;10066;48.108;11.448;2023-05-07T04:49:18;9.70;;;8.70;;
19812;SDS011;10066;48.108;11.448;2023-05-07T04:51:45;9.43;;;8.30;;
19812;SDS011;10066;48.108;11.448;2023-05-07T04:54:11;8.93;;;7.93;;
19812;SDS011;10066;48.108;11.448;2023-05-07T04:56:38;9.13;;;8.13;;
19812;SDS011;10066;48.108;11.448;2023-05-07T04:59:05;8.77;;;7.73;;
19812;SDS011;10066;48.108;11.448;2023-05-07T05:01:32;8.00;;;7.20;;
19812;SDS011;10066;48.108;11.448;2023-05-07T05:03:59;8.00;;;6.90;;
19812;SDS011;10066;48.108;11.448;2023-05-07T05:06:28;7.80;;;6.77;;
19812;SDS011;10066;48.108;11.448;2023-05-07T05:08:55;11.97;;;7.43;;
19812;SDS011;10066;48.108;11.448;2023-05-07T05:11:22;8.70;;;7.57;;
19812;SDS011;10066;48.108;11.448;2023-05-07T05:13:49;10.13;;;6.70;;
19812;SDS011;10066;48.108;11.448;2023-05-07T05:16:16;9.67;;;6.63;;
19812;SDS011;10066;48.108;11.448;2023-05-07T05:18:43;8.03;;;6.53;;
19812;SDS011;10066;48.108;11.448;2023-05-07T05:21:10;8.03;;;6.13;;
19812;SDS011;10066;48.108;11.448;2023-05-07T05:23:38;7.80;;;6.20;;
19812;SDS011;10066;48.108;11.448;2023-05-07T05:26:05;8.40;;;6.33;;
19812;SDS011;10066;48.108;11.448;2023-05-07T05:28:32;9.07;;;6.40;;
19812;SDS011;10066;48.108;11.448;2023-05-07T05:30:59;7.87;;;7.03;;
19812;SDS011;10066;48.108;11.448;2023-05-07T05:33:26;7.60;;;5.90;;
19812;SDS011;10066;48.108;11.448;2023-05-07T05:35:53;7.20;;;6.50;;
19812;SDS011;10066;48.108;11.448;2023-05-07T05:38:20;9.03;;;6.50;;
19812;SDS011;10066;48.108;11.448;2023-05-07T05:40:49;6.30;;;5.70;;
19812;SDS011;10066;48.108;11.448;2023-05-07T05:43:15;7.30;;;5.80;;
19812;SDS011;10066;48.108;11.448;2023-05-07T05:45:42;5.97;;;5.37;;
19812;SDS011;10066;48.108;11.448;2023-05-07T05:48:09;6.53;;;5.83;;
19812;SDS011;10066;48.108;11.448;2023-05-07T05:50:36;5.60;;;5.10;;
19812;SDS011;10066;48.108;11.448;2023-05-07T05:53:03;8.87;;;6.27;;
19812;SDS011;10066;48.108;11.448;2023-05-07T05:55:30;6.77;;;5.07;;
19812;SDS011;10066;48.108;11.448;2023-05-07T05:57:59;5.17;;;4.67;;
19812;SDS011;10066;48.108;11.448;2023-05-07T06:00:26;5.17;;;3.60;;
19812;SDS011;10066;48.108;11.448;2023-05-07T06:02:54;4.50;;;3.47;;
19812;SDS011;10066;48.108;11.448;2023-05-07T06:05:21;3.27;;;2.90;;
19812;SDS011;10066;48.108;11.448;2023-05-07T06:07:48;2.93;;;2.57;;
19812;SDS011;10066;48.108;11.448;2023-05-07T06:10:15;6.00;;;3.10;;
19812;SDS011;10066;48.108;11.448;2023-05-07T06:12:41;3.90;;;2.80;;
19812;SDS011;10066;48.108;11.448;2023-05-07T06:15:10;4.57;;;2.57;;
19812;SDS011;10066;48.108;11.448;2023-05-07T06:17:37;3.70;;;2.43;;
19812;SDS011;10066;48.108;11.448;2023-05-07T06:20:05;3.87;;;2.50;;
19812;SDS011;10066;48.108;11.448;2023-05-07T06:22:33;3.40;;;2.60;;
19812;SDS011;10066;48.108;11.448;2023-05-07T06:24:59;2.70;;;2.20;;
19812;SDS011;10066;48.108;11.448;2023-05-07T06:27:26;3.57;;;2.10;;
19812;SDS011;10066;48.108;11.448;2023-05-07T06:29:53;3.97;;;2.40;;
19812;SDS011;10066;48.108;11.448;2023-05-07T06:32:21;5.10;;;2.33;;
19812;SDS011;10066;48.108;11.448;2023-05-07T06:34:49;3.20;;;2.17;;
19812;SDS011;10066;48.108;11.448;2023-05-07T06:37:15;4.60;;;1.90;;
19812;SDS011;10066;48.108;11.448;2023-05-07T06:39:42;2.80;;;1.90;;
19812;SDS011;10066;48.108;11.448;2023-05-07T06:42:09;3.30;;;2.10;;
19812;SDS011;10066;48.108;11.448;2023-05-07T06:44:36;2.83;;;2.20;;
19812;SDS011;10066;48.108;11.448;2023-05-07T06:47:03;3.30;;;2.00;;
19812;SDS011;10066;48.108;11.448;2023-05-07T06:49:32;2.87;;;1.80;;
19812;SDS011;10066;48.108;11.448;2023-05-07T06:51:59;2.20;;;1.70;;
19812;SDS011;10066;48.108;11.448;2023-05-07T06:54:26;1.87;;;1.73;;
19812;SDS011;10066;48.108;11.448;2023-05-07T06:56:53;2.47;;;1.87;;
19812;SDS011;10066;48.108;11.448;2023-05-07T06:59:20;2.67;;;2.10;;
19812;SDS011;10066;48.108;11.448;2023-05-07T07:01:47;2.30;;;2.10;;
19812;SDS011;10066;48.108;11.448;2023-05-07T07:04:14;2.57;;;1.80;;
19812;SDS011;10066;48.108;11.448;2023-05-07T07:06:42;2.40;;;2.00;;
19812;SDS011;10066;48.108;11.448;2023-05-07T07:09:09;3.40;;;1.87;;
19812;SDS011;10066;48.108;11.448;2023-05-07T07:11:36;3.10;;;2.00;;
19812;SDS011;10066;48.108;11.448;2023-05-07T07:14:03;2.50;;;2.10;;
19812;SDS011;10066;48.108;11.448;2023-05-07T07:16:31;3.77;;;2.20;;
19812;SDS011;10066;48.108;11.448;2023-05-07T07:18:57;3.10;;;1.80;;
19812;SDS011;10066;48.108;11.448;2023-05-07T07:21:24;3.20;;;1.80;;
19812;SDS011;10066;48.108;11.448;2023-05-07T07:23:53;4.60;;;2.23;;
19812;SDS011;10066;48.108;11.448;2023-05-07T07:26:20;3.43;;;1.90;;
19812;SDS011;10066;48.108;11.448;2023-05-07T07:28:47;3.50;;;2.10;;
19812;SDS011;10066;48.108;11.448;2023-05-07T07:31:14;4.70;;;1.97;;
19812;SDS011;10066;48.108;11.448;2023-05-07T07:33:41;3.10;;;1.80;;
19812;SDS011;10066;48.108;11.448;2023-05-07T07:36:08;5.50;;;2.13;;
19812;SDS011;10066;48.108;11.448;2023-05-07T07:38:35;2.83;;;2.27;;
19812;SDS011;10066;48.108;11.448;2023-05-07T07:41:03;3.10;;;2.30;;
19812;SDS011;10066;48.108;11.448;2023-05-07T07:43:30;3.10;;;2.20;;
19812;SDS011;10066;48.108;11.448;2023-05-07T07:45:57;4.87;;;2.33;;
19812;SDS011;10066;48.108;11.448;2023-05-07T07:48:24;2.17;;;1.97;;
19812;SDS011;10066;48.108;11.448;2023-05-07T07:50:51;2.37;;;2.10;;
19812;SDS011;10066;48.108;11.448;2023-05-07T07:53:18;5.43;;;2.13;;
19812;SDS011;10066;48.108;11.448;2023-05-07T07:55:45;3.43;;;2.10;;
19812;SDS011;10066;48.108;11.448;2023-05-07T07:58:13;3.50;;;1.73;;
19812;SDS011;10066;48.108;11.448;2023-05-07T08:00:40;4.30;;;2.27;;
19812;SDS011;10066;48.108;11.448;2023-05-07T08:03:08;2.63;;;1.80;;
19812;SDS011;10066;48.108;11.448;2023-05-07T08:05:35;2.13;;;1.93;;
19812;SDS011;10066;48.108;11.448;2023-05-07T08:08:03;2.20;;;1.93;;
19812;SDS011;10066;48.108;11.448;2023-05-07T08:10:31;4.40;;;1.97;;
19812;SDS011;10066;48.108;11.448;2023-05-07T08:12:59;3.30;;;2.43;;
19812;SDS011;10066;48.108;11.448;2023-05-07T08:15:28;4.30;;;2.20;;
19812;SDS011;10066;48.108;11.448;2023-05-07T08:17:54;3.87;;;2.33;;
19812;SDS011;10066;48.108;11.448;2023-05-07T08:20:22;3.07;;;1.90;;
19812;SDS011;10066;48.108;11.448;2023-05-07T08:22:49;2.57;;;2.30;;
19812;SDS011;10066;48.108;11.448;2023-05-07T08:25:17;2.97;;;2.30;;
19812;SDS011;10066;48.108;11.448;2023-05-07T08:27:44;3.60;;;2.00;;
19812;SDS011;10066;48.108;11.448;2023-05-07T08:30:14;3.00;;;2.30;;
19812;SDS011;10066;48.108;11.448;2023-05-07T08:32:42;3.73;;;2.10;;
19812;SDS011;10066;48.108;11.448;2023-05-07T08:35:09;3.87;;;2.00;;
19812;SDS011;10066;48.108;11.448;2023-05-07T08:37:36;2.17;;;1.90;;
19812;SDS011;10066;48.108;11.448;2023-05-07T08:40:03;3.33;;;2.17;;
19812;SDS011;10066;48.108;11.448;2023-05-07T08:42:32;2.90;;;1.60;;
19812;SDS011;10066;48.108;11.448;2023-05-07T08:45:03;6.03;;;1.90;;
19812;SDS011;10066;48.108;11.448;2023-05-07T08:47:39;2.67;;;2.00;;
19812;SDS011;10066;48.108;11.448;2023-05-07T08:50:11;1.80;;;1.50;;
19812;SDS011;10066;48.108;11.448;2023-05-07T08:52:38;1.90;;;1.23;;
19812;SDS011;10066;48.108;11.448;2023-05-07T08:55:06;3.00;;;1.70;;
19812;SDS011;10066;48.108;11.448;2023-05-07T08:57:34;3.20;;;1.70;;
19812;SDS011;10066;48.108;11.448;2023-05-07T09:00:01;3.37;;;1.90;;
19812;SDS011;10066;48.108;11.448;2023-05-07T09:02:29;2.37;;;1.73;;
19812;SDS011;10066;48.108;11.448;2023-05-07T09:04:56;3.10;;;2.00;;
19812;SDS011;10066;48.108;11.448;2023-05-07T09:07:24;2.40;;;1.80;;
19812;SDS011;10066;48.108;11.448;2023-05-07T09:09:51;3.57;;;1.70;;
19812;SDS011;10066;48.108;11.448;2023-05-07T09:12:18;2.63;;;1.40;;
19812;SDS011;10066;48.108;11.448;2023-05-07T09:14:46;1.70;;;1.60;;
19812;SDS011;10066;48.108;11.448;2023-05-07T09:17:13;3.73;;;2.03;;
19812;SDS011;10066;48.108;11.448;2023-05-07T09:19:42;3.43;;;1.70;;
19812;SDS011;10066;48.108;11.448;2023-05-07T09:22:10;2.20;;;1.60;;
19812;SDS011;10066;48.108;11.448;2023-05-07T09:24:39;4.27;;;1.40;;
19812;SDS011;10066;48.108;11.448;2023-05-07T09:27:06;2.20;;;1.50;;
19812;SDS011;10066;48.108;11.448;2023-05-07T09:29:35;1.77;;;1.27;;
19812;SDS011;10066;48.108;11.448;2023-05-07T09:32:02;2.10;;;1.20;;
19812;SDS011;10066;48.108;11.448;2023-05-07T09:34:30;1.83;;;1.40;;
19812;SDS011;10066;48.108;11.448;2023-05-07T09:36:58;6.03;;;1.37;;
19812;SDS011;10066;48.108;11.448;2023-05-07T09:39:25;2.07;;;1.57;;
19812;SDS011;10066;48.108;11.448;2023-05-07T09:41:54;1.80;;;1.70;;
19812;SDS011;10066;48.108;11.448;2023-05-07T09:44:24;3.50;;;1.70;;
19812;SDS011;10066;48.108;11.448;2023-05-07T09:46:53;3.50;;;1.30;;
19812;SDS011;10066;48.108;11.448;2023-05-07T09:49:23;3.93;;;1.60;;
19812;SDS011;10066;48.108;11.448;2023-05-07T09:51:51;5.47;;;2.10;;
19812;SDS011;10066;48.108;11.448;2023-05-07T09:54:19;3.20;;;1.50;;
19812;SDS011;10066;48.108;11.448;2023-05-07T09:56:46;2.47;;;1.40;;
19812;SDS011;10066;48.108;11.448;2023-05-07T09:59:16;3.30;;;1.70;;
19812;SDS011;10066;48.108;11.448;2023-05-07T10:01:43;1.90;;;1.30;;
19812;SDS011;10066;48.108;11.448;2023-05-07T10:04:11;1.73;;;1.10;;
19812;SDS011;10066;48.108;11.448;2023-05-07T10:06:38;2.03;;;1.33;;
19812;SDS011;10066;48.108;11.448;2023-05-07T10:09:06;3.83;;;1.30;;
19812;SDS011;10066;48.108;11.448;2023-05-07T10:11:35;3.00;;;1.20;;
19812;SDS011;10066;48.108;11.448;2023-05-07T10:14:02;3.67;;;1.33;;
19812;SDS011;10066;48.108;11.448;2023-05-07T10:16:32;2.30;;;1.27;;
19812;SDS011;10066;48.108;11.448;2023-05-07T10:19:02;2.77;;;1.20;;
19812;SDS011;10066;48.108;11.448;2023-05-07T10:21:29;3.00;;;1.20;;
19812;SDS011;10066;48.108;11.448;2023-05-07T10:23:58;2.20;;;1.30;;
19812;SDS011;10066;48.108;11.448;2023-05-07T10:26:27;1.40;;;1.30;;
19812;SDS011;10066;48.108;11.448;2023-05-07T10:28:57;1.97;;;1.57;;
19812;SDS011;10066;48.108;11.448;2023-05-07T10:31:36;2.53;;;1.47;;
19812;SDS011;10066;48.108;11.448;2023-05-07T10:34:15;2.03;;;1.20;;
19812;SDS011;10066;48.108;11.448;2023-05-07T10:36:49;1.93;;;1.10;;
19812;SDS011;10066;48.108;11.448;2023-05-07T10:39:17;1.97;;;1.10;;
19812;SDS011;10066;48.108;11.448;2023-05-07T10:41:46;2.97;;;1.20;;
19812;SDS011;10066;48.108;11.448;2023-05-07T10:44:19;3.77;;;1.47;;
19812;SDS011;10066;48.108;11.448;2023-05-07T10:47:06;2.80;;;1.53;;
19812;SDS011;10066;48.108;11.448;2023-05-07T10:49:34;2.30;;;1.27;;
19812;SDS011;10066;48.108;11.448;2023-05-07T10:52:11;2.40;;;1.37;;
19812;SDS011;10066;48.108;11.448;2023-05-07T10:54:40;2.03;;;1.30;;
19812;SDS011;10066;48.108;11.448;2023-05-07T11:00:01;2.67;;;1.80;;
19812;SDS011;10066;48.108;11.448;2023-05-07T11:05:35;2.50;;;1.67;;
19812;SDS011;10066;48.108;11.448;2023-05-07T11:08:03;2.40;;;1.40;;
19812;SDS011;10066;48.108;11.448;2023-05-07T11:10:49;2.47;;;1.67;;
19812;SDS011;10066;48.108;11.448;2023-05-07T11:13:18;3.33;;;1.90;;
19812;SDS011;10066;48.108;11.448;2023-05-07T11:16:06;2.97;;;1.60;;
19812;SDS011;10066;48.108;11.448;2023-05-07T11:18:47;2.67;;;2.20;;
19812;SDS011;10066;48.108;11.448;2023-05-07T11:21:31;3.87;;;2.27;;
19812;SDS011;10066;48.108;11.448;2023-05-07T11:24:00;4.47;;;2.47;;
19812;SDS011;10066;48.108;11.448;2023-05-07T11:26:28;3.77;;;2.20;;
19812;SDS011;10066;48.108;11.448;2023-05-07T11:28:56;4.80;;;2.73;;
19812;SDS011;10066;48.108;11.448;2023-05-07T11:31:26;3.37;;;2.50;;
19812;SDS011;10066;48.108;11.448;2023-05-07T11:33:56;4.03;;;2.63;;
19812;SDS011;10066;48.108;11.448;2023-05-07T11:36:24;4.20;;;2.70;;
19812;SDS011;10066;48.108;11.448;2023-05-07T11:38:52;4.27;;;2.87;;
19812;SDS011;10066;48.108;11.448;2023-05-07T11:41:19;3.73;;;2.10;;
19812;SDS011;10066;48.108;11.448;2023-05-07T11:43:53;5.10;;;2.43;;
19812;SDS011;10066;48.108;11.448;2023-05-07T11:46:21;2.80;;;2.50;;
19812;SDS011;10066;48.108;11.448;2023-05-07T11:48:49;3.67;;;3.00;;
19812;SDS011;10066;48.108;11.448;2023-05-07T11:51:19;3.93;;;2.33;;
19812;SDS011;10066;48.108;11.448;2023-05-07T11:53:47;3.00;;;2.27;;
19812;SDS011;10066;48.108;11.448;2023-05-07T11:56:15;4.67;;;2.20;;
19812;SDS011;10066;48.108;11.448;2023-05-07T11:58:43;2.93;;;2.30;;
19812;SDS011;10066;48.108;11.448;2023-05-07T12:01:13;4.50;;;2.33;;
19812;SDS011;10066;48.108;11.448;2023-05-07T12:03:41;3.47;;;2.10;;
19812;SDS011;10066;48.108;11.448;2023-05-07T12:06:10;2.83;;;2.17;;
19812;SDS011;10066;48.108;11.448;2023-05-07T12:08:39;5.83;;;3.27;;
19812;SDS011;10066;48.108;11.448;2023-05-07T12:11:08;2.77;;;2.53;;
19812;SDS011;10066;48.108;11.448;2023-05-07T12:13:36;4.17;;;2.07;;
19812;SDS011;10066;48.108;11.448;2023-05-07T12:16:03;3.73;;;2.07;;
19812;SDS011;10066;48.108;11.448;2023-05-07T12:18:32;2.97;;;2.00;;
19812;SDS011;10066;48.108;11.448;2023-05-07T12:21:00;3.07;;;2.00;;
19812;SDS011;10066;48.108;11.448;2023-05-07T12:23:28;3.00;;;2.07;;
19812;SDS011;10066;48.108;11.448;2023-05-07T12:25:56;1.67;;;1.57;;
19812;SDS011;10066;48.108;11.448;2023-05-07T12:28:23;2.20;;;2.00;;
19812;SDS011;10066;48.108;11.448;2023-05-07T12:30:50;2.17;;;1.50;;
19812;SDS011;10066;48.108;11.448;2023-05-07T12:33:18;2.83;;;1.90;;
19812;SDS011;10066;48.108;11.448;2023-05-07T12:35:54;3.33;;;1.77;;
19812;SDS011;10066;48.108;11.448;2023-05-07T12:38:22;2.87;;;1.77;;
19812;SDS011;10066;48.108;11.448;2023-05-07T12:40:50;4.00;;;2.07;;
19812;SDS011;10066;48.108;11.448;2023-05-07T12:43:21;2.80;;;2.07;;
19812;SDS011;10066;48.108;11.448;2023-05-07T12:45:52;3.07;;;1.93;;
19812;SDS011;10066;48.108;11.448;2023-05-07T12:48:23;2.07;;;1.50;;
19812;SDS011;10066;48.108;11.448;2023-05-07T12:50:52;2.27;;;1.50;;
19812;SDS011;10066;48.108;11.448;2023-05-07T12:53:20;4.30;;;1.87;;
19812;SDS011;10066;48.108;11.448;2023-05-07T12:55:48;2.20;;;1.53;;
19812;SDS011;10066;48.108;11.448;2023-05-07T12:58:16;2.90;;;1.97;;
19812;SDS011;10066;48.108;11.448;2023-05-07T13:00:47;3.33;;;1.60;;
19812;SDS011;10066;48.108;11.448;2023-05-07T13:03:20;2.70;;;1.70;;
19812;SDS011;10066;48.108;11.448;2023-05-07T13:05:49;3.37;;;1.70;;
19812;SDS011;10066;48.108;11.448;2023-05-07T13:08:26;2.37;;;1.30;;
19812;SDS011;10066;48.108;11.448;2023-05-07T13:10:54;1.77;;;1.30;;
19812;SDS011;10066;48.108;11.448;2023-05-07T13:13:21;2.47;;;1.20;;
19812;SDS011;10066;48.108;11.448;2023-05-07T13:15:49;3.33;;;1.30;;
19812;SDS011;10066;48.108;11.448;2023-05-07T13:18:16;1.77;;;1.30;;
19812;SDS011;10066;48.108;11.448;2023-05-07T13:20:43;1.70;;;1.40;;
19812;SDS011;10066;48.108;11.448;2023-05-07T13:23:10;3.00;;;1.30;;
19812;SDS011;10066;48.108;11.448;2023-05-07T13:25:37;3.33;;;1.20;;
19812;SDS011;10066;48.108;11.448;2023-05-07T13:28:05;2.43;;;1.40;;
19812;SDS011;10066;48.108;11.448;2023-05-07T13:30:31;1.63;;;1.40;;
19812;SDS011;10066;48.108;11.448;2023-05-07T13:33:00;5.03;;;1.30;;
19812;SDS011;10066;48.108;11.448;2023-05-07T13:35:27;1.97;;;1.30;;
19812;SDS011;10066;48.108;11.448;2023-05-07T13:37:54;3.23;;;1.30;;
19812;SDS011;10066;48.108;11.448;2023-05-07T13:40:21;2.83;;;1.20;;
19812;SDS011;10066;48.108;11.448;2023-05-07T13:42:48;1.50;;;0.87;;
19812;SDS011;10066;48.108;11.448;2023-05-07T13:45:16;3.07;;;1.23;;
19812;SDS011;10066;48.108;11.448;2023-05-07T13:47:43;1.57;;;1.40;;
19812;SDS011;10066;48.108;11.448;2023-05-07T13:50:11;1.60;;;1.30;;
19812;SDS011;10066;48.108;11.448;2023-05-07T13:52:40;1.23;;;1.13;;
19812;SDS011;10066;48.108;11.448;2023-05-07T13:55:11;1.83;;;1.30;;
19812;SDS011;10066;48.108;11.448;2023-05-07T13:57:38;1.93;;;1.30;;
19812;SDS011;10066;48.108;11.448;2023-05-07T14:00:06;2.73;;;1.37;;
19812;SDS011;10066;48.108;11.448;2023-05-07T14:02:34;2.03;;;1.40;;
19812;SDS011;10066;48.108;11.448;2023-05-07T14:05:01;1.83;;;1.40;;
19812;SDS011;10066;48.108;11.448;2023-05-07T14:07:29;3.87;;;1.63;;
19812;SDS011;10066;48.108;11.448;2023-05-07T14:09:56;2.67;;;1.70;;
19812;SDS011;10066;48.108;11.448;2023-05-07T14:12:23;2.33;;;1.40;;
19812;SDS011;10066;48.108;11.448;2023-05-07T14:14:50;1.90;;;1.50;;
19812;SDS011;10066;48.108;11.448;2023-05-07T14:17:17;2.57;;;1.53;;
19812;SDS011;10066;48.108;11.448;2023-05-07T14:19:44;3.60;;;1.50;;
19812;SDS011;10066;48.108;11.448;2023-05-07T14:22:12;3.20;;;1.80;;
19812;SDS011;10066;48.108;11.448;2023-05-07T14:24:41;2.87;;;1.90;;
19812;SDS011;10066;48.108;11.448;2023-05-07T14:27:09;2.50;;;1.70;;
19812;SDS011;10066;48.108;11.448;2023-05-07T14:29:35;3.10;;;1.63;;
19812;SDS011;10066;48.108;11.448;2023-05-07T14:32:02;3.33;;;2.00;;
19812;SDS011;10066;48.108;11.448;2023-05-07T14:34:30;1.87;;;1.63;;
19812;SDS011;10066;48.108;11.448;2023-05-07T14:36:57;2.27;;;1.80;;
19812;SDS011;10066;48.108;11.448;2023-05-07T14:39:26;2.60;;;1.63;;
19812;SDS011;10066;48.108;11.448;2023-05-07T14:41:54;2.57;;;1.70;;
19812;SDS011;10066;48.108;11.448;2023-05-07T14:44:22;2.87;;;2.00;;